Kezdőlap
METAR-TAF:

METAR-TAF

Repülőterek :

Roland Garros repülőtér

Saint-Denis, Réunion

földrajzi szélesség: 20-53S, földrajzi hosszúság: 055-31E, magasság: 21 m

Jelenlegi meteorológiai megfigyelések

A jelentés 36 perccel ezelõtt készült, 15:00 UTC
Délkeleti szél 16 kt
Hőmérséklet 20°C
Páratartalom 68%
Légköri nyomás 1023 hPa
Látótávolság 10 km, vagy több

METAR: FMEE 291500Z AUTO 13016KT 9999 OVC062/// 20/14 Q1023 NOSIG

Idő: 19:36 (15:36 UTC)

Előrejelzés

A jelentés 4 órával és 36 perccel ezelõtt készült, 11:00 UTC
Az előrejelzés 29-én 12 óra UTC és 30-én 18 óra UTC között érvényes
Délkeleti szél 15 kt
Látótávolság 10 km, vagy több
Kevés felhő 3000 lábon
Szórványos felhőzet 4600 lábon
30-én 04 óra UTC és 30-én 12 óra UTC között ideiglenes
Délkeleti szél 15 kt széllökések: 25 kt

TAF: FMEE 291100Z 2912/3018 13015KT 9999 FEW030 SCT046 TEMPO 3004/3012 13015G25KT

Meteorológiai megfigyelések és előrejelzések több, mint 4000 repülőtéren (METAR és TAF jelentéseket).

A térképen piros és sárga pontok jelzik az elérhető meteorológiai állomásokat.

Mozgassa az egeret a pont fölött, hogy megjelenjen az állomás neve.

Azután kattintson az időjárási megfigyelések és előrejelzések megtekintéséhez.

A térkép megváltoztatása: kattintson a fekete keresztel jelölt zöld gombra ráközelítéshez, a vonallal jelölt zöld gombra távolításhoz, vagy a zöld nyilakra a szomszédos térképek eléréséhez.


METAR-TAF: